sensor_id;sensor_type;location;lat;lon;timestamp;pressure;altitude;pressure_sealevel;temperature;humidity
54554;BME280;40450;55.848;-3.572;2022-08-01T00:00:45;99678.17;;;13.40;79.72
54554;BME280;40450;55.848;-3.572;2022-08-01T00:03:15;99668.18;;;14.13;77.01
54554;BME280;40450;55.848;-3.572;2022-08-01T00:05:45;99656.62;;;15.16;73.82
54554;BME280;40450;55.848;-3.572;2022-08-01T00:08:16;99656.96;;;15.55;72.27
54554;BME280;40450;55.848;-3.572;2022-08-01T00:10:46;99664.69;;;14.90;73.08
54554;BME280;40450;55.848;-3.572;2022-08-01T00:13:16;99670.70;;;14.03;75.40
54554;BME280;40450;55.848;-3.572;2022-08-01T00:15:47;99669.50;;;14.18;75.31
54554;BME280;40450;55.848;-3.572;2022-08-01T00:18:17;99673.42;;;14.66;74.40
54554;BME280;40450;55.848;-3.572;2022-08-01T00:20:47;99676.52;;;15.00;72.57
54554;BME280;40450;55.848;-3.572;2022-08-01T00:23:18;99677.32;;;15.20;71.83
54554;BME280;40450;55.848;-3.572;2022-08-01T00:25:48;99679.53;;;14.91;72.39
54554;BME280;40450;55.848;-3.572;2022-08-01T00:28:19;99676.35;;;15.39;71.51
54554;BME280;40450;55.848;-3.572;2022-08-01T00:30:54;99675.26;;;15.98;69.16
54554;BME280;40450;55.848;-3.572;2022-08-01T00:33:20;99675.28;;;15.85;69.59
54554;BME280;40450;55.848;-3.572;2022-08-01T00:35:50;99672.94;;;16.06;68.77
54554;BME280;40450;55.848;-3.572;2022-08-01T00:38:20;99671.03;;;16.40;69.14
54554;BME280;40450;55.848;-3.572;2022-08-01T00:40:51;99667.78;;;16.88;65.20
54554;BME280;40450;55.848;-3.572;2022-08-01T00:43:21;99670.01;;;16.17;66.33
54554;BME280;40450;55.848;-3.572;2022-08-01T00:45:51;99672.22;;;17.26;65.95
54554;BME280;40450;55.848;-3.572;2022-08-01T00:48:22;99670.53;;;17.13;64.82
54554;BME280;40450;55.848;-3.572;2022-08-01T00:50:52;99667.00;;;17.45;62.63
54554;BME280;40450;55.848;-3.572;2022-08-01T00:53:23;99666.59;;;17.66;63.21
54554;BME280;40450;55.848;-3.572;2022-08-01T00:55:53;99671.96;;;17.20;63.28
54554;BME280;40450;55.848;-3.572;2022-08-01T00:58:24;99672.96;;;17.04;64.08
54554;BME280;40450;55.848;-3.572;2022-08-01T01:00:54;99677.18;;;15.73;68.39
54554;BME280;40450;55.848;-3.572;2022-08-01T01:03:24;99678.19;;;14.79;71.62
54554;BME280;40450;55.848;-3.572;2022-08-01T01:06:05;99674.20;;;14.55;72.21
54554;BME280;40450;55.848;-3.572;2022-08-01T01:08:32;99668.62;;;13.57;76.20
54554;BME280;40450;55.848;-3.572;2022-08-01T01:11:00;99668.98;;;13.61;76.42
54554;BME280;40450;55.848;-3.572;2022-08-01T01:13:33;99669.19;;;13.97;75.64
54554;BME280;40450;55.848;-3.572;2022-08-01T01:15:59;99666.01;;;14.07;75.52
54554;BME280;40450;55.848;-3.572;2022-08-01T01:18:32;99660.90;;;13.99;75.73
54554;BME280;40450;55.848;-3.572;2022-08-01T01:21:03;99656.88;;;14.29;74.96
54554;BME280;40450;55.848;-3.572;2022-08-01T01:23:40;99657.31;;;14.49;74.35
54554;BME280;40450;55.848;-3.572;2022-08-01T01:26:12;99656.91;;;13.78;76.16
54554;BME280;40450;55.848;-3.572;2022-08-01T01:28:35;99654.67;;;13.43;77.39
54554;BME280;40450;55.848;-3.572;2022-08-01T01:30:58;99652.51;;;13.20;78.14
54554;BME280;40450;55.848;-3.572;2022-08-01T01:33:32;99652.35;;;12.96;78.79
54554;BME280;40450;55.848;-3.572;2022-08-01T01:36:03;99649.57;;;13.24;78.10
54554;BME280;40450;55.848;-3.572;2022-08-01T01:38:34;99656.91;;;12.95;78.73
54554;BME280;40450;55.848;-3.572;2022-08-01T01:41:00;99660.94;;;12.43;80.35
54554;BME280;40450;55.848;-3.572;2022-08-01T01:43:32;99656.87;;;12.30;80.51
54554;BME280;40450;55.848;-3.572;2022-08-01T01:46:02;99654.63;;;11.98;81.99
54554;BME280;40450;55.848;-3.572;2022-08-01T01:48:31;99655.80;;;12.02;82.14
54554;BME280;40450;55.848;-3.572;2022-08-01T01:51:02;99658.10;;;12.40;81.03
54554;BME280;40450;55.848;-3.572;2022-08-01T01:53:33;99653.39;;;12.69;80.05
54554;BME280;40450;55.848;-3.572;2022-08-01T01:56:03;99650.38;;;12.67;79.75
54554;BME280;40450;55.848;-3.572;2022-08-01T01:58:33;99648.03;;;13.01;78.64
54554;BME280;40450;55.848;-3.572;2022-08-01T02:01:03;99650.56;;;12.45;79.90
54554;BME280;40450;55.848;-3.572;2022-08-01T02:03:33;99653.02;;;12.40;80.19
54554;BME280;40450;55.848;-3.572;2022-08-01T02:06:03;99647.37;;;12.57;79.42
54554;BME280;40450;55.848;-3.572;2022-08-01T02:08:34;99644.90;;;12.56;79.40
54554;BME280;40450;55.848;-3.572;2022-08-01T02:11:04;99641.08;;;12.88;78.44
54554;BME280;40450;55.848;-3.572;2022-08-01T02:13:36;99640.79;;;13.15;77.22
54554;BME280;40450;55.848;-3.572;2022-08-01T02:16:05;99638.59;;;13.32;76.62
54554;BME280;40450;55.848;-3.572;2022-08-01T02:18:35;99644.12;;;12.84;77.72
54554;BME280;40450;55.848;-3.572;2022-08-01T02:21:09;99648.96;;;11.73;81.41
54554;BME280;40450;55.848;-3.572;2022-08-01T02:23:37;99648.86;;;11.53;82.24
54554;BME280;40450;55.848;-3.572;2022-08-01T02:26:10;99644.77;;;12.00;81.00
54554;BME280;40450;55.848;-3.572;2022-08-01T02:28:43;99638.91;;;12.53;79.17
54554;BME280;40450;55.848;-3.572;2022-08-01T02:31:12;99637.02;;;12.66;78.50
54554;BME280;40450;55.848;-3.572;2022-08-01T02:33:39;99635.83;;;13.23;77.19
54554;BME280;40450;55.848;-3.572;2022-08-01T02:36:08;99633.96;;;13.21;75.88
54554;BME280;40450;55.848;-3.572;2022-08-01T02:38:42;99630.18;;;13.08;75.41
54554;BME280;40450;55.848;-3.572;2022-08-01T02:41:11;99629.66;;;13.05;76.00
54554;BME280;40450;55.848;-3.572;2022-08-01T02:43:43;99626.92;;;13.08;76.08
54554;BME280;40450;55.848;-3.572;2022-08-01T02:46:20;99632.44;;;12.76;77.32
54554;BME280;40450;55.848;-3.572;2022-08-01T02:48:40;99634.32;;;12.82;77.15
54554;BME280;40450;55.848;-3.572;2022-08-01T02:51:11;99636.65;;;12.73;77.22
54554;BME280;40450;55.848;-3.572;2022-08-01T02:53:42;99630.15;;;12.67;78.06
54554;BME280;40450;55.848;-3.572;2022-08-01T02:56:13;99623.16;;;12.88;77.63
54554;BME280;40450;55.848;-3.572;2022-08-01T02:58:42;99623.53;;;13.61;75.53
54554;BME280;40450;55.848;-3.572;2022-08-01T03:01:13;99624.91;;;13.58;74.64
54554;BME280;40450;55.848;-3.572;2022-08-01T03:03:43;99625.47;;;13.17;75.79
54554;BME280;40450;55.848;-3.572;2022-08-01T03:06:13;99627.56;;;12.74;77.31
54554;BME280;40450;55.848;-3.572;2022-08-01T03:08:44;99624.17;;;12.98;76.15
54554;BME280;40450;55.848;-3.572;2022-08-01T03:11:14;99626.65;;;12.83;74.75
54554;BME280;40450;55.848;-3.572;2022-08-01T03:13:44;99626.67;;;12.81;75.87
54554;BME280;40450;55.848;-3.572;2022-08-01T03:16:15;99623.79;;;12.69;77.42
54554;BME280;40450;55.848;-3.572;2022-08-01T03:18:45;99622.73;;;12.55;77.74
54554;BME280;40450;55.848;-3.572;2022-08-01T03:21:15;99624.73;;;11.91;80.08
54554;BME280;40450;55.848;-3.572;2022-08-01T03:23:46;99621.98;;;12.16;79.63
54554;BME280;40450;55.848;-3.572;2022-08-01T03:26:16;99622.17;;;12.25;79.36
54554;BME280;40450;55.848;-3.572;2022-08-01T03:28:48;99618.18;;;12.09;80.04
54554;BME280;40450;55.848;-3.572;2022-08-01T03:31:17;99613.62;;;12.18;79.88
54554;BME280;40450;55.848;-3.572;2022-08-01T03:33:47;99613.03;;;12.41;79.29
54554;BME280;40450;55.848;-3.572;2022-08-01T03:36:21;99614.24;;;12.62;78.38
54554;BME280;40450;55.848;-3.572;2022-08-01T03:38:49;99613.81;;;12.96;77.43
54554;BME280;40450;55.848;-3.572;2022-08-01T03:41:20;99618.59;;;12.44;78.51
54554;BME280;40450;55.848;-3.572;2022-08-01T03:43:55;99620.71;;;12.01;79.90
54554;BME280;40450;55.848;-3.572;2022-08-01T03:48:51;99613.25;;;11.75;80.98
54554;BME280;40450;55.848;-3.572;2022-08-01T03:51:21;99607.30;;;12.88;79.60
54554;BME280;40450;55.848;-3.572;2022-08-01T03:53:51;99605.47;;;13.47;77.28
54554;BME280;40450;55.848;-3.572;2022-08-01T03:56:21;99610.30;;;14.20;74.96
54554;BME280;40450;55.848;-3.572;2022-08-01T03:58:51;99605.86;;;14.38;72.82
54554;BME280;40450;55.848;-3.572;2022-08-01T04:01:21;99603.13;;;14.20;74.00
54554;BME280;40450;55.848;-3.572;2022-08-01T04:03:51;99603.52;;;14.16;71.95
54554;BME280;40450;55.848;-3.572;2022-08-01T04:06:22;99606.38;;;14.09;72.49
54554;BME280;40450;55.848;-3.572;2022-08-01T04:08:52;99605.98;;;13.99;71.45
54554;BME280;40450;55.848;-3.572;2022-08-01T04:11:24;99611.38;;;13.99;71.05
54554;BME280;40450;55.848;-3.572;2022-08-01T04:13:54;99611.74;;;13.63;72.00
54554;BME280;40450;55.848;-3.572;2022-08-01T04:16:23;99606.79;;;13.50;72.60
54554;BME280;40450;55.848;-3.572;2022-08-01T04:18:53;99607.19;;;13.69;71.94
54554;BME280;40450;55.848;-3.572;2022-08-01T04:21:26;99608.34;;;13.30;72.76
54554;BME280;40450;55.848;-3.572;2022-08-01T04:23:58;99607.20;;;13.51;72.65
54554;BME280;40450;55.848;-3.572;2022-08-01T04:26:26;99609.09;;;13.56;72.02
54554;BME280;40450;55.848;-3.572;2022-08-01T04:28:55;99611.40;;;13.96;70.88
54554;BME280;40450;55.848;-3.572;2022-08-01T04:31:26;99613.02;;;13.90;70.67
54554;BME280;40450;55.848;-3.572;2022-08-01T04:33:57;99614.37;;;13.12;73.03
54554;BME280;40450;55.848;-3.572;2022-08-01T04:36:28;99618.94;;;12.35;75.92
54554;BME280;40450;55.848;-3.572;2022-08-01T04:39:00;99623.07;;;11.98;77.10
54554;BME280;40450;55.848;-3.572;2022-08-01T04:41:28;99616.59;;;12.46;75.14
54554;BME280;40450;55.848;-3.572;2022-08-01T04:43:57;99615.85;;;12.37;76.28
54554;BME280;40450;55.848;-3.572;2022-08-01T04:46:28;99618.10;;;11.95;77.70
54554;BME280;40450;55.848;-3.572;2022-08-01T04:48:58;99619.89;;;11.34;79.12
54554;BME280;40450;55.848;-3.572;2022-08-01T04:51:28;99619.79;;;10.85;80.82
54554;BME280;40450;55.848;-3.572;2022-08-01T04:53:59;99620.83;;;10.55;81.86
54554;BME280;40450;55.848;-3.572;2022-08-01T04:56:29;99628.13;;;9.98;83.68
54554;BME280;40450;55.848;-3.572;2022-08-01T04:59:00;99628.45;;;9.75;83.97
54554;BME280;40450;55.848;-3.572;2022-08-01T05:01:30;99627.06;;;10.29;83.83
54554;BME280;40450;55.848;-3.572;2022-08-01T05:04:06;99621.31;;;10.76;82.55
54554;BME280;40450;55.848;-3.572;2022-08-01T05:06:31;99627.41;;;10.51;83.11
54554;BME280;40450;55.848;-3.572;2022-08-01T05:09:02;99627.15;;;10.58;82.82
54554;BME280;40450;55.848;-3.572;2022-08-01T05:11:32;99627.19;;;10.41;83.39
54554;BME280;40450;55.848;-3.572;2022-08-01T05:14:02;99627.02;;;10.37;83.82
54554;BME280;40450;55.848;-3.572;2022-08-01T05:16:38;99626.14;;;10.44;83.73
54554;BME280;40450;55.848;-3.572;2022-08-01T05:19:03;99623.28;;;11.22;82.25
54554;BME280;40450;55.848;-3.572;2022-08-01T05:21:33;99622.39;;;11.23;81.70
54554;BME280;40450;55.848;-3.572;2022-08-01T05:24:04;99627.45;;;10.99;82.58
54554;BME280;40450;55.848;-3.572;2022-08-01T05:26:39;99628.80;;;11.00;82.84
54554;BME280;40450;55.848;-3.572;2022-08-01T05:29:05;99625.17;;;10.92;82.78
54554;BME280;40450;55.848;-3.572;2022-08-01T05:31:35;99629.24;;;10.65;83.97
54554;BME280;40450;55.848;-3.572;2022-08-01T05:34:05;99633.94;;;10.31;85.45
54554;BME280;40450;55.848;-3.572;2022-08-01T05:36:36;99632.41;;;10.27;85.66
54554;BME280;40450;55.848;-3.572;2022-08-01T05:39:06;99630.81;;;10.12;86.50
54554;BME280;40450;55.848;-3.572;2022-08-01T05:41:36;99631.65;;;10.16;86.68
54554;BME280;40450;55.848;-3.572;2022-08-01T05:44:08;99629.64;;;10.15;86.42
54554;BME280;40450;55.848;-3.572;2022-08-01T05:46:37;99629.17;;;10.48;86.23
54554;BME280;40450;55.848;-3.572;2022-08-01T05:49:08;99630.25;;;10.37;86.46
54554;BME280;40450;55.848;-3.572;2022-08-01T05:51:38;99625.18;;;10.69;85.85
54554;BME280;40450;55.848;-3.572;2022-08-01T05:54:08;99623.65;;;10.77;85.54
54554;BME280;40450;55.848;-3.572;2022-08-01T05:56:39;99628.01;;;10.22;87.23
54554;BME280;40450;55.848;-3.572;2022-08-01T05:59:09;99628.45;;;10.05;87.93
54554;BME280;40450;55.848;-3.572;2022-08-01T06:01:40;99629.32;;;9.98;88.65
54554;BME280;40450;55.848;-3.572;2022-08-01T06:04:10;99630.93;;;10.33;87.52
54554;BME280;40450;55.848;-3.572;2022-08-01T06:06:40;99627.21;;;10.50;87.11
54554;BME280;40450;55.848;-3.572;2022-08-01T06:09:11;99636.70;;;10.32;87.66
54554;BME280;40450;55.848;-3.572;2022-08-01T06:11:41;99631.11;;;10.54;87.14
54554;BME280;40450;55.848;-3.572;2022-08-01T06:14:12;99634.64;;;9.99;88.58
54554;BME280;40450;55.848;-3.572;2022-08-01T06:16:42;99630.99;;;10.70;87.31
54554;BME280;40450;55.848;-3.572;2022-08-01T06:19:13;99631.31;;;11.52;84.76
54554;BME280;40450;55.848;-3.572;2022-08-01T06:21:43;99632.07;;;11.91;83.87
54554;BME280;40450;55.848;-3.572;2022-08-01T06:24:14;99629.12;;;11.89;83.01
54554;BME280;40450;55.848;-3.572;2022-08-01T06:26:44;99630.57;;;11.09;85.23
54554;BME280;40450;55.848;-3.572;2022-08-01T06:29:15;99625.43;;;11.17;84.81
54554;BME280;40450;55.848;-3.572;2022-08-01T06:31:45;99620.71;;;11.48;83.88
54554;BME280;40450;55.848;-3.572;2022-08-01T06:34:15;99624.55;;;11.90;83.37
54554;BME280;40450;55.848;-3.572;2022-08-01T06:36:46;99627.54;;;12.45;82.12
54554;BME280;40450;55.848;-3.572;2022-08-01T06:39:16;99630.67;;;11.35;84.33
54554;BME280;40450;55.848;-3.572;2022-08-01T06:41:46;99632.55;;;11.11;85.72
54554;BME280;40450;55.848;-3.572;2022-08-01T06:44:17;99625.29;;;10.90;86.38
54554;BME280;40450;55.848;-3.572;2022-08-01T06:46:47;99625.91;;;10.75;87.16
54554;BME280;40450;55.848;-3.572;2022-08-01T06:49:17;99622.01;;;11.16;86.71
54554;BME280;40450;55.848;-3.572;2022-08-01T06:51:48;99616.36;;;11.02;86.89
54554;BME280;40450;55.848;-3.572;2022-08-01T06:54:18;99612.38;;;11.42;86.17
54554;BME280;40450;55.848;-3.572;2022-08-01T06:56:49;99612.12;;;10.96;86.95
54554;BME280;40450;55.848;-3.572;2022-08-01T06:59:19;99610.05;;;10.90;87.20
54554;BME280;40450;55.848;-3.572;2022-08-01T07:01:50;99611.21;;;11.09;87.06
54554;BME280;40450;55.848;-3.572;2022-08-01T07:04:20;99614.29;;;11.84;85.24
54554;BME280;40450;55.848;-3.572;2022-08-01T07:06:50;99615.09;;;11.55;85.70
54554;BME280;40450;55.848;-3.572;2022-08-01T07:09:20;99614.90;;;12.16;84.83
54554;BME280;40450;55.848;-3.572;2022-08-01T07:11:51;99609.86;;;13.06;83.40
54554;BME280;40450;55.848;-3.572;2022-08-01T07:14:22;99613.32;;;13.52;81.33
54554;BME280;40450;55.848;-3.572;2022-08-01T07:16:52;99615.80;;;12.78;81.64
54554;BME280;40450;55.848;-3.572;2022-08-01T07:19:22;99614.49;;;12.79;81.93
54554;BME280;40450;55.848;-3.572;2022-08-01T07:21:53;99608.39;;;13.47;79.66
54554;BME280;40450;55.848;-3.572;2022-08-01T07:24:23;99612.80;;;14.06;76.51
54554;BME280;40450;55.848;-3.572;2022-08-01T07:26:53;99609.08;;;14.31;76.01
54554;BME280;40450;55.848;-3.572;2022-08-01T07:29:24;99604.32;;;14.78;75.78
54554;BME280;40450;55.848;-3.572;2022-08-01T07:31:56;99598.44;;;15.08;74.72
54554;BME280;40450;55.848;-3.572;2022-08-01T07:34:25;99596.97;;;15.22;73.54
54554;BME280;40450;55.848;-3.572;2022-08-01T07:36:55;99592.11;;;15.26;71.51
54554;BME280;40450;55.848;-3.572;2022-08-01T07:39:25;99584.41;;;14.86;70.85
54554;BME280;40450;55.848;-3.572;2022-08-01T07:41:55;99583.49;;;14.78;71.99
54554;BME280;40450;55.848;-3.572;2022-08-01T07:44:26;99594.13;;;14.02;74.16
54554;BME280;40450;55.848;-3.572;2022-08-01T07:46:56;99597.19;;;13.75;75.24
54554;BME280;40450;55.848;-3.572;2022-08-01T07:49:27;99596.66;;;14.29;72.48
54554;BME280;40450;55.848;-3.572;2022-08-01T07:51:57;99589.56;;;14.48;71.86
54554;BME280;40450;55.848;-3.572;2022-08-01T07:54:27;99593.13;;;14.45;71.96
54554;BME280;40450;55.848;-3.572;2022-08-01T07:56:58;99599.10;;;13.01;76.25
54554;BME280;40450;55.848;-3.572;2022-08-01T07:59:28;99595.89;;;14.82;71.85
54554;BME280;40450;55.848;-3.572;2022-08-01T08:01:59;99592.79;;;15.49;69.96
54554;BME280;40450;55.848;-3.572;2022-08-01T08:04:29;99587.59;;;15.06;71.26
54554;BME280;40450;55.848;-3.572;2022-08-01T08:06:59;99585.69;;;15.04;70.71
54554;BME280;40450;55.848;-3.572;2022-08-01T08:09:30;99576.50;;;14.81;71.71
54554;BME280;40450;55.848;-3.572;2022-08-01T08:12:00;99577.62;;;14.89;71.54
54554;BME280;40450;55.848;-3.572;2022-08-01T08:14:31;99583.83;;;13.55;74.85
54554;BME280;40450;55.848;-3.572;2022-08-01T08:17:01;99578.81;;;14.43;72.63
54554;BME280;40450;55.848;-3.572;2022-08-01T08:19:32;99579.37;;;14.76;71.92
54554;BME280;40450;55.848;-3.572;2022-08-01T08:22:02;99590.04;;;13.85;74.11
54554;BME280;40450;55.848;-3.572;2022-08-01T08:24:32;99586.81;;;14.98;70.64
54554;BME280;40450;55.848;-3.572;2022-08-01T08:27:04;99586.85;;;14.82;71.35
54554;BME280;40450;55.848;-3.572;2022-08-01T08:29:33;99589.52;;;15.06;69.54
54554;BME280;40450;55.848;-3.572;2022-08-01T08:32:04;99581.29;;;14.75;68.93
54554;BME280;40450;55.848;-3.572;2022-08-01T08:34:39;99576.86;;;15.60;68.54
54554;BME280;40450;55.848;-3.572;2022-08-01T08:37:04;99572.98;;;15.47;67.57
54554;BME280;40450;55.848;-3.572;2022-08-01T08:39:34;99578.01;;;15.35;67.89
54554;BME280;40450;55.848;-3.572;2022-08-01T08:42:07;99574.07;;;13.11;72.87
54554;BME280;40450;55.848;-3.572;2022-08-01T08:44:35;99572.74;;;15.21;67.02
54554;BME280;40450;55.848;-3.572;2022-08-01T08:47:07;99577.25;;;13.76;70.54
54554;BME280;40450;55.848;-3.572;2022-08-01T08:49:36;99580.34;;;13.18;72.73
54554;BME280;40450;55.848;-3.572;2022-08-01T08:52:06;99577.26;;;14.64;68.79
54554;BME280;40450;55.848;-3.572;2022-08-01T08:54:38;99580.30;;;14.48;68.02
54554;BME280;40450;55.848;-3.572;2022-08-01T08:57:07;99589.46;;;13.83;67.42
54554;BME280;40450;55.848;-3.572;2022-08-01T08:59:37;99579.10;;;15.31;64.06
54554;BME280;40450;55.848;-3.572;2022-08-01T09:02:07;99578.47;;;15.06;65.14
54554;BME280;40450;55.848;-3.572;2022-08-01T09:04:38;99576.62;;;14.93;65.00
54554;BME280;40450;55.848;-3.572;2022-08-01T09:07:13;99573.17;;;15.49;64.06
54554;BME280;40450;55.848;-3.572;2022-08-01T09:09:38;99562.46;;;16.34;62.96
54554;BME280;40450;55.848;-3.572;2022-08-01T09:12:09;99562.62;;;16.29;61.43
54554;BME280;40450;55.848;-3.572;2022-08-01T09:14:45;99567.07;;;15.85;64.69
54554;BME280;40450;55.848;-3.572;2022-08-01T09:17:10;99563.24;;;15.35;63.86
54554;BME280;40450;55.848;-3.572;2022-08-01T09:19:41;99555.66;;;16.06;62.29
54554;BME280;40450;55.848;-3.572;2022-08-01T09:22:13;99556.78;;;15.40;64.85
54554;BME280;40450;55.848;-3.572;2022-08-01T09:24:41;99549.40;;;16.89;61.12
54554;BME280;40450;55.848;-3.572;2022-08-01T09:27:16;99559.62;;;14.83;67.37
54554;BME280;40450;55.848;-3.572;2022-08-01T09:29:41;99551.99;;;14.89;64.91
54554;BME280;40450;55.848;-3.572;2022-08-01T09:32:11;99560.16;;;13.56;69.83
54554;BME280;40450;55.848;-3.572;2022-08-01T09:34:41;99555.53;;;15.18;65.34
54554;BME280;40450;55.848;-3.572;2022-08-01T09:37:13;99556.65;;;14.68;65.46
54554;BME280;40450;55.848;-3.572;2022-08-01T09:39:42;99555.55;;;15.90;60.98
54554;BME280;40450;55.848;-3.572;2022-08-01T09:42:19;99552.34;;;16.20;59.69
54554;BME280;40450;55.848;-3.572;2022-08-01T09:44:44;99549.83;;;15.66;59.89
54554;BME280;40450;55.848;-3.572;2022-08-01T09:47:14;99550.23;;;15.71;59.22
54554;BME280;40450;55.848;-3.572;2022-08-01T09:49:44;99546.33;;;16.57;58.94
54554;BME280;40450;55.848;-3.572;2022-08-01T09:52:16;99550.98;;;16.42;58.29
54554;BME280;40450;55.848;-3.572;2022-08-01T09:54:51;99549.66;;;16.57;57.04
54554;BME280;40450;55.848;-3.572;2022-08-01T09:57:16;99549.88;;;16.50;56.47
54554;BME280;40450;55.848;-3.572;2022-08-01T09:59:46;99542.11;;;16.46;57.85
54554;BME280;40450;55.848;-3.572;2022-08-01T10:04:47;99544.78;;;17.59;55.21
54554;BME280;40450;55.848;-3.572;2022-08-01T10:07:18;99536.53;;;17.00;56.45
54554;BME280;40450;55.848;-3.572;2022-08-01T10:09:46;99538.71;;;16.98;54.48
54554;BME280;40450;55.848;-3.572;2022-08-01T10:12:18;99543.48;;;15.85;58.54
54554;BME280;40450;55.848;-3.572;2022-08-01T10:14:48;99530.65;;;15.93;59.01
54554;BME280;40450;55.848;-3.572;2022-08-01T10:17:19;99534.77;;;15.87;59.27
54554;BME280;40450;55.848;-3.572;2022-08-01T10:19:49;99531.13;;;16.81;57.13
54554;BME280;40450;55.848;-3.572;2022-08-01T10:22:18;99532.97;;;16.38;58.12
54554;BME280;40450;55.848;-3.572;2022-08-01T10:24:50;99533.26;;;15.59;59.04
54554;BME280;40450;55.848;-3.572;2022-08-01T10:27:19;99532.09;;;17.58;56.30
54554;BME280;40450;55.848;-3.572;2022-08-01T10:29:56;99532.03;;;16.83;56.69
54554;BME280;40450;55.848;-3.572;2022-08-01T10:32:20;99528.59;;;17.14;54.99
54554;BME280;40450;55.848;-3.572;2022-08-01T10:34:49;99529.47;;;16.62;55.71
54554;BME280;40450;55.848;-3.572;2022-08-01T10:37:20;99531.42;;;16.97;56.28
54554;BME280;40450;55.848;-3.572;2022-08-01T10:39:51;99529.30;;;17.08;55.16
54554;BME280;40450;55.848;-3.572;2022-08-01T10:42:21;99526.98;;;17.92;53.48
54554;BME280;40450;55.848;-3.572;2022-08-01T10:44:51;99524.95;;;17.05;56.73
54554;BME280;40450;55.848;-3.572;2022-08-01T10:47:27;99528.26;;;17.59;55.71
54554;BME280;40450;55.848;-3.572;2022-08-01T10:49:59;99523.72;;;18.39;52.51
54554;BME280;40450;55.848;-3.572;2022-08-01T10:52:22;99522.07;;;17.35;55.17
54554;BME280;40450;55.848;-3.572;2022-08-01T10:55:01;99522.70;;;15.91;60.30
54554;BME280;40450;55.848;-3.572;2022-08-01T10:57:22;99524.19;;;15.80;63.11
54554;BME280;40450;55.848;-3.572;2022-08-01T10:59:52;99516.46;;;15.84;61.89
54554;BME280;40450;55.848;-3.572;2022-08-01T11:02:28;99510.05;;;16.58;61.36
54554;BME280;40450;55.848;-3.572;2022-08-01T11:04:55;99506.38;;;16.73;59.95
54554;BME280;40450;55.848;-3.572;2022-08-01T11:10:02;99499.33;;;16.25;61.76
54554;BME280;40450;55.848;-3.572;2022-08-01T11:17:30;99486.45;;;17.49;57.03
54554;BME280;40450;55.848;-3.572;2022-08-01T11:20:04;99474.70;;;18.28;56.36
54554;BME280;40450;55.848;-3.572;2022-08-01T11:22:25;99472.40;;;18.47;57.69
54554;BME280;40450;55.848;-3.572;2022-08-01T11:24:56;99471.27;;;17.19;58.60
54554;BME280;40450;55.848;-3.572;2022-08-01T11:27:28;99464.10;;;17.70;55.27
54554;BME280;40450;55.848;-3.572;2022-08-01T11:32:27;99457.51;;;18.63;53.50
54554;BME280;40450;55.848;-3.572;2022-08-01T11:34:57;99453.21;;;18.75;53.32
54554;BME280;40450;55.848;-3.572;2022-08-01T11:37:29;99446.81;;;18.50;52.28
54554;BME280;40450;55.848;-3.572;2022-08-01T11:42:35;99446.48;;;17.71;56.33
54554;BME280;40450;55.848;-3.572;2022-08-01T11:44:59;99433.82;;;18.39;55.51
54554;BME280;40450;55.848;-3.572;2022-08-01T11:49:59;99422.03;;;18.07;54.56
54554;BME280;40450;55.848;-3.572;2022-08-01T11:52:31;99427.64;;;17.71;55.36
54554;BME280;40450;55.848;-3.572;2022-08-01T11:55:06;99426.75;;;18.84;53.20
54554;BME280;40450;55.848;-3.572;2022-08-01T11:57:32;99424.61;;;18.82;52.81
54554;BME280;40450;55.848;-3.572;2022-08-01T12:00:03;99429.60;;;18.80;51.69
54554;BME280;40450;55.848;-3.572;2022-08-01T12:02:33;99424.21;;;19.06;52.64
54554;BME280;40450;55.848;-3.572;2022-08-01T12:05:04;99423.99;;;19.46;51.88
54554;BME280;40450;55.848;-3.572;2022-08-01T12:07:33;99426.73;;;20.26;50.72
54554;BME280;40450;55.848;-3.572;2022-08-01T12:10:05;99422.32;;;18.29;53.58
54554;BME280;40450;55.848;-3.572;2022-08-01T12:12:34;99420.36;;;18.14;55.13
54554;BME280;40450;55.848;-3.572;2022-08-01T12:15:05;99415.58;;;17.77;57.11
54554;BME280;40450;55.848;-3.572;2022-08-01T12:17:35;99413.09;;;17.32;56.02
54554;BME280;40450;55.848;-3.572;2022-08-01T12:20:06;99406.51;;;17.41;57.18
54554;BME280;40450;55.848;-3.572;2022-08-01T12:22:34;99395.82;;;17.82;55.90
54554;BME280;40450;55.848;-3.572;2022-08-01T12:25:06;99399.95;;;17.76;56.75
54554;BME280;40450;55.848;-3.572;2022-08-01T12:27:35;99394.18;;;18.05;56.03
54554;BME280;40450;55.848;-3.572;2022-08-01T12:32:38;99390.28;;;18.37;53.74
54554;BME280;40450;55.848;-3.572;2022-08-01T12:35:07;99393.69;;;18.65;52.93
54554;BME280;40450;55.848;-3.572;2022-08-01T12:37:36;99382.00;;;19.16;52.19
54554;BME280;40450;55.848;-3.572;2022-08-01T12:40:11;99382.61;;;19.38;52.87
54554;BME280;40450;55.848;-3.572;2022-08-01T12:42:37;99372.25;;;19.61;52.19
54554;BME280;40450;55.848;-3.572;2022-08-01T12:45:08;99375.50;;;20.14;50.30
54554;BME280;40450;55.848;-3.572;2022-08-01T12:47:38;99372.12;;;18.68;52.17
54554;BME280;40450;55.848;-3.572;2022-08-01T12:50:12;99376.48;;;17.72;57.43
54554;BME280;40450;55.848;-3.572;2022-08-01T12:52:43;99382.32;;;18.24;54.56
54554;BME280;40450;55.848;-3.572;2022-08-01T12:55:12;99376.90;;;17.42;57.32
54554;BME280;40450;55.848;-3.572;2022-08-01T12:57:40;99371.28;;;18.87;54.02
54554;BME280;40450;55.848;-3.572;2022-08-01T13:00:13;99364.27;;;19.42;51.80
54554;BME280;40450;55.848;-3.572;2022-08-01T13:02:40;99357.43;;;19.66;51.15
54554;BME280;40450;55.848;-3.572;2022-08-01T13:05:11;99357.68;;;19.76;50.64
54554;BME280;40450;55.848;-3.572;2022-08-01T13:07:46;99361.19;;;18.06;53.92
54554;BME280;40450;55.848;-3.572;2022-08-01T13:10:11;99351.55;;;18.10;55.85
54554;BME280;40450;55.848;-3.572;2022-08-01T13:12:50;99348.09;;;18.32;54.98
54554;BME280;40450;55.848;-3.572;2022-08-01T13:15:17;99344.38;;;18.70;54.64
54554;BME280;40450;55.848;-3.572;2022-08-01T13:17:41;99338.84;;;19.42;51.36
54554;BME280;40450;55.848;-3.572;2022-08-01T13:22:42;99337.72;;;18.40;53.64
54554;BME280;40450;55.848;-3.572;2022-08-01T13:25:14;99336.00;;;18.28;55.55
54554;BME280;40450;55.848;-3.572;2022-08-01T13:27:44;99330.60;;;18.23;55.71
54554;BME280;40450;55.848;-3.572;2022-08-01T13:30:15;99325.47;;;18.06;55.97